Airfield :
LOGIN :

Register | Disclaimer

   EN    FR    IT 

 










Legend :    VFR   Marginal VFR   IFR   Intensive IFR   Very Intensive IFR
Visi :
Ceiling :
>= 8 km
>= 3000ft
5 to 8 km
1000 to 3000 ft
1500m to 5 km
500 to 1000 ft
800 to 1500m
200 to 500 ft
< 800m
< 200 ft
Symbols :   Thunderstorms  Fog  Heavy snow  Heavy precipitations  Wind > 20 kt
SIGMETs :     Misc.  Thunderstorms  Icing  Turbulence  Mountain Waves  Volcanic Ashes







- Airport Elevation : 995 ft
- IATA code : KTW


EPKT - Katowice

CURRENT METAR :
  • 250930Z VRB03KT 9999 SCT010 BKN013 BKN016 13/09 Q1020

EXPIRED METARs :
  • 250900Z 31004KT 260V340 9999 FEW006 SCT009 BKN010 12/10 Q1020
  • 250830Z 26007KT 220V290 9999 SCT006 BKN007 OVC009 11/09 Q1020
  • 250800Z 28006KT 9999 BKN005 11/10 Q1020
  • 250730Z 28007KT 250V320 9999 SCT004 BKN007 11/10 Q1019
  • 250700Z 27006KT 9999 SCT004 OVC006 11/10 Q1019

TAF AMD TAF EPKT
Valid from the 25 at 08:00 until the 26 at 06:00 UTC


250813Z 2508/2606 27007KT 9999 BKN007
BECMG 2508/2511 BKN030
TEMPO 2509/2520 4000 SHRA SCT013 BKN025CB
PROB40
TEMPO 2511/2516 VRB15G25KT TSRA BKN013CB
TEMPO 2522/2606 3000 BR BKN004
PROB40
TEMPO 2602/2606 SHRA SCT013 BKN025CB
No reported NOTAMs for that airfield.



MET'MAP, your aeronautical weather chart ! - Copyright ORBIFLY December 2007 - Disclaimer

ORBIFLY MET'MAP TEAM :

Programming & Development : Alexandra Zaïnal
Concept & Development : Baudouin d'Aumeries
Co-Development & Prog : Marc-Olivier Méhu
Technical & hardware support : Manuel Goepfert

Contact : metmap@orbifly.com




SOURCES & CREDITS :

   NOAA